sensor_id;sensor_type;location;lat;lon;timestamp;P1;durP1;ratioP1;P2;durP2;ratioP2
17953;SDS011;9102;53.548;9.926;2023-05-10T00:02:07;6.32;;;2.80;;
17953;SDS011;9102;53.548;9.926;2023-05-10T00:04:34;7.82;;;2.75;;
17953;SDS011;9102;53.548;9.926;2023-05-10T00:07:01;9.80;;;3.33;;
17953;SDS011;9102;53.548;9.926;2023-05-10T00:09:30;10.18;;;4.07;;
17953;SDS011;9102;53.548;9.926;2023-05-10T00:11:58;7.57;;;3.30;;
17953;SDS011;9102;53.548;9.926;2023-05-10T00:14:25;6.15;;;3.13;;
17953;SDS011;9102;53.548;9.926;2023-05-10T00:16:52;5.70;;;3.10;;
17953;SDS011;9102;53.548;9.926;2023-05-10T00:19:18;8.60;;;3.38;;
17953;SDS011;9102;53.548;9.926;2023-05-10T00:21:45;8.27;;;3.00;;
17953;SDS011;9102;53.548;9.926;2023-05-10T00:24:12;7.50;;;3.28;;
17953;SDS011;9102;53.548;9.926;2023-05-10T00:26:39;4.90;;;2.90;;
17953;SDS011;9102;53.548;9.926;2023-05-10T00:29:08;6.40;;;3.35;;
17953;SDS011;9102;53.548;9.926;2023-05-10T00:31:35;7.75;;;3.30;;
17953;SDS011;9102;53.548;9.926;2023-05-10T00:34:02;7.72;;;3.17;;
17953;SDS011;9102;53.548;9.926;2023-05-10T00:36:29;6.95;;;2.75;;
17953;SDS011;9102;53.548;9.926;2023-05-10T00:38:56;8.00;;;3.10;;
17953;SDS011;9102;53.548;9.926;2023-05-10T00:41:23;10.10;;;3.47;;
17953;SDS011;9102;53.548;9.926;2023-05-10T00:43:50;5.93;;;3.22;;
17953;SDS011;9102;53.548;9.926;2023-05-10T00:46:19;7.10;;;2.90;;
17953;SDS011;9102;53.548;9.926;2023-05-10T00:48:46;5.13;;;3.47;;
17953;SDS011;9102;53.548;9.926;2023-05-10T00:51:13;8.05;;;3.53;;
17953;SDS011;9102;53.548;9.926;2023-05-10T00:53:40;6.43;;;3.03;;
17953;SDS011;9102;53.548;9.926;2023-05-10T00:56:08;6.10;;;2.92;;
17953;SDS011;9102;53.548;9.926;2023-05-10T00:58:35;6.88;;;3.50;;
17953;SDS011;9102;53.548;9.926;2023-05-10T01:01:03;6.47;;;3.35;;
17953;SDS011;9102;53.548;9.926;2023-05-10T01:03:33;7.35;;;3.75;;
17953;SDS011;9102;53.548;9.926;2023-05-10T01:06:00;6.00;;;3.17;;
17953;SDS011;9102;53.548;9.926;2023-05-10T01:08:27;6.30;;;3.53;;
17953;SDS011;9102;53.548;9.926;2023-05-10T01:10:54;7.32;;;3.50;;
17953;SDS011;9102;53.548;9.926;2023-05-10T01:13:25;8.48;;;3.78;;
17953;SDS011;9102;53.548;9.926;2023-05-10T01:15:59;8.10;;;3.90;;
17953;SDS011;9102;53.548;9.926;2023-05-10T01:18:28;7.28;;;3.90;;
17953;SDS011;9102;53.548;9.926;2023-05-10T01:21:00;5.75;;;3.60;;
17953;SDS011;9102;53.548;9.926;2023-05-10T01:23:45;7.85;;;3.85;;
17953;SDS011;9102;53.548;9.926;2023-05-10T01:32:31;9.07;;;3.95;;
17953;SDS011;9102;53.548;9.926;2023-05-10T01:35:03;9.10;;;3.30;;
17953;SDS011;9102;53.548;9.926;2023-05-10T01:37:36;6.50;;;3.60;;
17953;SDS011;9102;53.548;9.926;2023-05-10T01:40:13;5.13;;;3.63;;
17953;SDS011;9102;53.548;9.926;2023-05-10T01:42:47;4.95;;;3.78;;
17953;SDS011;9102;53.548;9.926;2023-05-10T01:45:24;9.45;;;3.95;;
17953;SDS011;9102;53.548;9.926;2023-05-10T01:48:02;7.97;;;4.00;;
17953;SDS011;9102;53.548;9.926;2023-05-10T01:50:32;7.20;;;4.13;;
17953;SDS011;9102;53.548;9.926;2023-05-10T01:53:00;7.28;;;3.53;;
17953;SDS011;9102;53.548;9.926;2023-05-10T01:55:29;7.63;;;3.75;;
17953;SDS011;9102;53.548;9.926;2023-05-10T01:58:01;7.65;;;4.30;;
17953;SDS011;9102;53.548;9.926;2023-05-10T02:00:30;12.75;;;3.90;;
17953;SDS011;9102;53.548;9.926;2023-05-10T02:03:01;8.57;;;4.25;;
17953;SDS011;9102;53.548;9.926;2023-05-10T02:05:31;8.68;;;3.90;;
17953;SDS011;9102;53.548;9.926;2023-05-10T02:08:01;5.40;;;3.30;;
17953;SDS011;9102;53.548;9.926;2023-05-10T02:10:31;6.18;;;3.70;;
17953;SDS011;9102;53.548;9.926;2023-05-10T02:13:00;10.02;;;4.30;;
17953;SDS011;9102;53.548;9.926;2023-05-10T02:15:29;8.35;;;3.75;;
17953;SDS011;9102;53.548;9.926;2023-05-10T02:17:57;7.53;;;4.13;;
17953;SDS011;9102;53.548;9.926;2023-05-10T02:20:28;10.90;;;4.47;;
17953;SDS011;9102;53.548;9.926;2023-05-10T02:22:57;8.32;;;4.13;;
17953;SDS011;9102;53.548;9.926;2023-05-10T02:25:25;15.10;;;3.58;;
17953;SDS011;9102;53.548;9.926;2023-05-10T02:27:55;8.65;;;4.00;;
17953;SDS011;9102;53.548;9.926;2023-05-10T02:30:23;5.72;;;3.75;;
17953;SDS011;9102;53.548;9.926;2023-05-10T02:32:50;9.93;;;4.18;;
17953;SDS011;9102;53.548;9.926;2023-05-10T02:35:18;10.02;;;4.45;;
17953;SDS011;9102;53.548;9.926;2023-05-10T02:37:46;10.73;;;3.70;;
17953;SDS011;9102;53.548;9.926;2023-05-10T02:40:14;8.55;;;3.83;;
17953;SDS011;9102;53.548;9.926;2023-05-10T02:42:43;8.85;;;3.78;;
17953;SDS011;9102;53.548;9.926;2023-05-10T02:45:12;14.35;;;4.28;;
17953;SDS011;9102;53.548;9.926;2023-05-10T02:47:43;8.82;;;4.32;;
17953;SDS011;9102;53.548;9.926;2023-05-10T02:50:10;4.78;;;3.42;;
17953;SDS011;9102;53.548;9.926;2023-05-10T02:52:39;8.68;;;4.22;;
17953;SDS011;9102;53.548;9.926;2023-05-10T02:55:11;5.32;;;3.80;;
17953;SDS011;9102;53.548;9.926;2023-05-10T02:57:41;7.38;;;4.03;;
17953;SDS011;9102;53.548;9.926;2023-05-10T03:00:12;8.77;;;4.40;;
17953;SDS011;9102;53.548;9.926;2023-05-10T03:02:40;7.30;;;4.13;;
17953;SDS011;9102;53.548;9.926;2023-05-10T03:05:07;9.63;;;3.70;;
17953;SDS011;9102;53.548;9.926;2023-05-10T03:07:34;9.40;;;4.20;;
17953;SDS011;9102;53.548;9.926;2023-05-10T03:10:02;6.68;;;4.30;;
17953;SDS011;9102;53.548;9.926;2023-05-10T03:12:33;5.47;;;3.78;;
17953;SDS011;9102;53.548;9.926;2023-05-10T03:15:11;8.75;;;3.70;;
17953;SDS011;9102;53.548;9.926;2023-05-10T03:17:46;7.28;;;3.47;;
17953;SDS011;9102;53.548;9.926;2023-05-10T03:20:21;9.20;;;4.07;;
17953;SDS011;9102;53.548;9.926;2023-05-10T03:22:51;6.95;;;4.40;;
17953;SDS011;9102;53.548;9.926;2023-05-10T03:25:21;8.63;;;4.65;;
17953;SDS011;9102;53.548;9.926;2023-05-10T03:27:51;7.85;;;4.47;;
17953;SDS011;9102;53.548;9.926;2023-05-10T03:30:19;8.10;;;4.15;;
17953;SDS011;9102;53.548;9.926;2023-05-10T03:32:46;11.40;;;4.07;;
17953;SDS011;9102;53.548;9.926;2023-05-10T03:35:12;6.72;;;3.95;;
17953;SDS011;9102;53.548;9.926;2023-05-10T03:37:41;9.05;;;4.25;;
17953;SDS011;9102;53.548;9.926;2023-05-10T03:40:08;7.35;;;4.03;;
17953;SDS011;9102;53.548;9.926;2023-05-10T03:42:35;12.48;;;4.60;;
17953;SDS011;9102;53.548;9.926;2023-05-10T03:45:04;8.98;;;4.05;;
17953;SDS011;9102;53.548;9.926;2023-05-10T03:47:32;11.68;;;4.15;;
17953;SDS011;9102;53.548;9.926;2023-05-10T03:49:59;8.65;;;4.18;;
17953;SDS011;9102;53.548;9.926;2023-05-10T03:52:26;5.95;;;4.28;;
17953;SDS011;9102;53.548;9.926;2023-05-10T03:54:53;9.57;;;3.85;;
17953;SDS011;9102;53.548;9.926;2023-05-10T03:57:20;8.07;;;3.90;;
17953;SDS011;9102;53.548;9.926;2023-05-10T03:59:48;6.60;;;3.90;;
17953;SDS011;9102;53.548;9.926;2023-05-10T04:02:16;7.07;;;4.40;;
17953;SDS011;9102;53.548;9.926;2023-05-10T04:04:43;8.90;;;4.32;;
17953;SDS011;9102;53.548;9.926;2023-05-10T04:07:10;9.10;;;4.22;;
17953;SDS011;9102;53.548;9.926;2023-05-10T04:09:37;9.38;;;4.20;;
17953;SDS011;9102;53.548;9.926;2023-05-10T04:12:04;10.35;;;4.70;;
17953;SDS011;9102;53.548;9.926;2023-05-10T04:14:31;8.57;;;4.70;;
17953;SDS011;9102;53.548;9.926;2023-05-10T04:16:58;11.10;;;4.82;;
17953;SDS011;9102;53.548;9.926;2023-05-10T04:19:30;13.02;;;4.75;;
17953;SDS011;9102;53.548;9.926;2023-05-10T04:21:57;9.63;;;5.03;;
17953;SDS011;9102;53.548;9.926;2023-05-10T04:24:24;9.40;;;4.93;;
17953;SDS011;9102;53.548;9.926;2023-05-10T04:26:51;8.45;;;4.50;;
17953;SDS011;9102;53.548;9.926;2023-05-10T04:29:18;8.75;;;4.30;;
17953;SDS011;9102;53.548;9.926;2023-05-10T04:31:44;7.20;;;4.45;;
17953;SDS011;9102;53.548;9.926;2023-05-10T04:34:12;9.98;;;3.75;;
17953;SDS011;9102;53.548;9.926;2023-05-10T04:36:40;7.50;;;4.40;;
17953;SDS011;9102;53.548;9.926;2023-05-10T04:39:06;7.32;;;4.43;;
17953;SDS011;9102;53.548;9.926;2023-05-10T04:41:34;8.27;;;4.10;;
17953;SDS011;9102;53.548;9.926;2023-05-10T04:44:01;9.25;;;4.10;;
17953;SDS011;9102;53.548;9.926;2023-05-10T04:46:28;7.60;;;4.28;;
17953;SDS011;9102;53.548;9.926;2023-05-10T04:48:55;5.10;;;4.10;;
17953;SDS011;9102;53.548;9.926;2023-05-10T04:51:21;8.88;;;3.97;;
17953;SDS011;9102;53.548;9.926;2023-05-10T04:53:50;7.50;;;4.00;;
17953;SDS011;9102;53.548;9.926;2023-05-10T04:56:17;7.07;;;4.25;;
17953;SDS011;9102;53.548;9.926;2023-05-10T04:58:43;9.27;;;4.57;;
17953;SDS011;9102;53.548;9.926;2023-05-10T05:01:11;8.85;;;5.20;;
17953;SDS011;9102;53.548;9.926;2023-05-10T05:03:37;11.32;;;4.38;;
17953;SDS011;9102;53.548;9.926;2023-05-10T05:06:04;13.50;;;4.65;;
17953;SDS011;9102;53.548;9.926;2023-05-10T05:08:31;11.75;;;4.28;;
17953;SDS011;9102;53.548;9.926;2023-05-10T05:11:00;11.25;;;4.53;;
17953;SDS011;9102;53.548;9.926;2023-05-10T05:13:27;10.65;;;4.70;;
17953;SDS011;9102;53.548;9.926;2023-05-10T05:15:54;8.52;;;4.05;;
17953;SDS011;9102;53.548;9.926;2023-05-10T05:18:24;12.02;;;4.60;;
17953;SDS011;9102;53.548;9.926;2023-05-10T05:20:51;9.73;;;4.43;;
17953;SDS011;9102;53.548;9.926;2023-05-10T05:23:17;14.60;;;4.10;;
17953;SDS011;9102;53.548;9.926;2023-05-10T05:25:45;7.30;;;4.78;;
17953;SDS011;9102;53.548;9.926;2023-05-10T05:28:14;10.65;;;4.97;;
17953;SDS011;9102;53.548;9.926;2023-05-10T05:30:41;9.73;;;4.25;;
17953;SDS011;9102;53.548;9.926;2023-05-10T05:33:07;10.40;;;4.47;;
17953;SDS011;9102;53.548;9.926;2023-05-10T05:35:35;9.25;;;4.40;;
17953;SDS011;9102;53.548;9.926;2023-05-10T05:38:02;10.05;;;4.05;;
17953;SDS011;9102;53.548;9.926;2023-05-10T05:40:30;6.88;;;3.95;;
17953;SDS011;9102;53.548;9.926;2023-05-10T05:42:58;9.60;;;4.20;;
17953;SDS011;9102;53.548;9.926;2023-05-10T05:45:27;9.75;;;4.10;;
17953;SDS011;9102;53.548;9.926;2023-05-10T05:47:54;10.95;;;4.80;;
17953;SDS011;9102;53.548;9.926;2023-05-10T05:50:21;5.80;;;3.80;;
17953;SDS011;9102;53.548;9.926;2023-05-10T05:52:48;9.77;;;3.85;;
17953;SDS011;9102;53.548;9.926;2023-05-10T05:55:15;8.15;;;4.82;;
17953;SDS011;9102;53.548;9.926;2023-05-10T05:57:42;10.38;;;4.57;;
17953;SDS011;9102;53.548;9.926;2023-05-10T06:00:09;11.32;;;4.47;;
17953;SDS011;9102;53.548;9.926;2023-05-10T06:02:38;14.25;;;5.00;;
17953;SDS011;9102;53.548;9.926;2023-05-10T06:05:05;6.63;;;3.90;;
17953;SDS011;9102;53.548;9.926;2023-05-10T06:07:33;6.05;;;4.03;;
17953;SDS011;9102;53.548;9.926;2023-05-10T06:10:00;9.02;;;4.18;;
17953;SDS011;9102;53.548;9.926;2023-05-10T06:12:27;8.43;;;3.70;;
17953;SDS011;9102;53.548;9.926;2023-05-10T06:14:54;11.48;;;4.85;;
17953;SDS011;9102;53.548;9.926;2023-05-10T06:17:21;6.90;;;3.80;;
17953;SDS011;9102;53.548;9.926;2023-05-10T06:19:50;8.48;;;4.40;;
17953;SDS011;9102;53.548;9.926;2023-05-10T06:22:17;10.55;;;4.20;;
17953;SDS011;9102;53.548;9.926;2023-05-10T06:24:44;6.47;;;4.47;;
17953;SDS011;9102;53.548;9.926;2023-05-10T06:27:11;9.80;;;4.28;;
17953;SDS011;9102;53.548;9.926;2023-05-10T06:29:38;11.23;;;4.40;;
17953;SDS011;9102;53.548;9.926;2023-05-10T06:32:05;8.52;;;4.20;;
17953;SDS011;9102;53.548;9.926;2023-05-10T06:34:32;7.60;;;4.82;;
17953;SDS011;9102;53.548;9.926;2023-05-10T06:37:00;10.45;;;5.10;;
17953;SDS011;9102;53.548;9.926;2023-05-10T06:39:28;13.30;;;4.75;;
17953;SDS011;9102;53.548;9.926;2023-05-10T06:41:55;11.52;;;4.18;;
17953;SDS011;9102;53.548;9.926;2023-05-10T06:44:22;15.73;;;4.47;;
17953;SDS011;9102;53.548;9.926;2023-05-10T06:46:48;14.55;;;5.85;;
17953;SDS011;9102;53.548;9.926;2023-05-10T06:49:17;10.15;;;4.95;;
17953;SDS011;9102;53.548;9.926;2023-05-10T06:51:44;13.07;;;4.88;;
17953;SDS011;9102;53.548;9.926;2023-05-10T06:54:12;9.43;;;4.50;;
17953;SDS011;9102;53.548;9.926;2023-05-10T06:56:39;10.48;;;4.43;;
17953;SDS011;9102;53.548;9.926;2023-05-10T06:59:06;9.35;;;4.95;;
17953;SDS011;9102;53.548;9.926;2023-05-10T07:01:32;6.90;;;4.60;;
17953;SDS011;9102;53.548;9.926;2023-05-10T07:03:59;9.48;;;4.18;;
17953;SDS011;9102;53.548;9.926;2023-05-10T07:06:26;7.65;;;4.03;;
17953;SDS011;9102;53.548;9.926;2023-05-10T07:08:53;7.70;;;4.28;;
17953;SDS011;9102;53.548;9.926;2023-05-10T07:11:27;8.52;;;4.68;;
17953;SDS011;9102;53.548;9.926;2023-05-10T07:13:54;10.80;;;4.45;;
17953;SDS011;9102;53.548;9.926;2023-05-10T07:16:21;6.63;;;3.67;;
17953;SDS011;9102;53.548;9.926;2023-05-10T07:18:51;9.45;;;3.78;;
17953;SDS011;9102;53.548;9.926;2023-05-10T07:21:18;8.40;;;4.07;;
17953;SDS011;9102;53.548;9.926;2023-05-10T07:23:48;8.57;;;4.10;;
17953;SDS011;9102;53.548;9.926;2023-05-10T07:26:16;13.05;;;4.25;;
17953;SDS011;9102;53.548;9.926;2023-05-10T07:28:45;6.25;;;3.70;;
17953;SDS011;9102;53.548;9.926;2023-05-10T07:31:12;6.13;;;3.97;;
17953;SDS011;9102;53.548;9.926;2023-05-10T07:33:39;10.95;;;4.10;;
17953;SDS011;9102;53.548;9.926;2023-05-10T07:36:06;13.60;;;4.15;;
17953;SDS011;9102;53.548;9.926;2023-05-10T07:38:33;8.15;;;4.20;;
17953;SDS011;9102;53.548;9.926;2023-05-10T07:41:00;10.65;;;4.57;;
17953;SDS011;9102;53.548;9.926;2023-05-10T07:43:27;8.73;;;4.43;;
17953;SDS011;9102;53.548;9.926;2023-05-10T07:45:55;13.60;;;4.35;;
17953;SDS011;9102;53.548;9.926;2023-05-10T07:48:22;9.10;;;4.50;;
17953;SDS011;9102;53.548;9.926;2023-05-10T07:50:49;5.75;;;3.72;;
17953;SDS011;9102;53.548;9.926;2023-05-10T07:53:16;8.98;;;4.20;;
17953;SDS011;9102;53.548;9.926;2023-05-10T07:55:43;8.25;;;3.65;;
17953;SDS011;9102;53.548;9.926;2023-05-10T07:58:10;13.77;;;4.00;;
17953;SDS011;9102;53.548;9.926;2023-05-10T08:00:37;11.75;;;3.95;;
17953;SDS011;9102;53.548;9.926;2023-05-10T08:03:07;9.27;;;4.30;;
17953;SDS011;9102;53.548;9.926;2023-05-10T08:05:34;11.93;;;4.47;;
17953;SDS011;9102;53.548;9.926;2023-05-10T08:08:01;8.73;;;3.78;;
17953;SDS011;9102;53.548;9.926;2023-05-10T08:10:28;15.55;;;4.30;;
17953;SDS011;9102;53.548;9.926;2023-05-10T08:12:55;9.60;;;3.88;;
17953;SDS011;9102;53.548;9.926;2023-05-10T08:15:23;8.32;;;3.97;;
17953;SDS011;9102;53.548;9.926;2023-05-10T08:17:50;8.07;;;3.88;;
17953;SDS011;9102;53.548;9.926;2023-05-10T08:20:19;7.38;;;3.50;;
17953;SDS011;9102;53.548;9.926;2023-05-10T08:22:45;5.93;;;3.22;;
17953;SDS011;9102;53.548;9.926;2023-05-10T08:25:12;6.63;;;4.10;;
17953;SDS011;9102;53.548;9.926;2023-05-10T08:27:39;5.80;;;3.63;;
17953;SDS011;9102;53.548;9.926;2023-05-10T08:30:06;6.90;;;4.20;;
17953;SDS011;9102;53.548;9.926;2023-05-10T08:32:34;6.60;;;3.58;;
17953;SDS011;9102;53.548;9.926;2023-05-10T08:35:03;8.60;;;3.80;;
17953;SDS011;9102;53.548;9.926;2023-05-10T08:37:31;6.50;;;4.10;;
17953;SDS011;9102;53.548;9.926;2023-05-10T08:39:58;11.18;;;3.80;;
17953;SDS011;9102;53.548;9.926;2023-05-10T08:42:27;12.43;;;3.80;;
17953;SDS011;9102;53.548;9.926;2023-05-10T08:44:57;11.38;;;4.30;;
17953;SDS011;9102;53.548;9.926;2023-05-10T08:47:25;8.95;;;4.25;;
17953;SDS011;9102;53.548;9.926;2023-05-10T08:49:52;6.82;;;4.32;;
17953;SDS011;9102;53.548;9.926;2023-05-10T08:52:21;15.60;;;4.15;;
17953;SDS011;9102;53.548;9.926;2023-05-10T08:54:52;9.70;;;3.78;;
17953;SDS011;9102;53.548;9.926;2023-05-10T08:57:19;10.23;;;4.03;;
17953;SDS011;9102;53.548;9.926;2023-05-10T08:59:46;9.50;;;4.95;;
17953;SDS011;9102;53.548;9.926;2023-05-10T09:02:13;8.60;;;4.75;;
17953;SDS011;9102;53.548;9.926;2023-05-10T09:04:40;7.55;;;4.18;;
17953;SDS011;9102;53.548;9.926;2023-05-10T09:07:07;7.25;;;4.30;;
17953;SDS011;9102;53.548;9.926;2023-05-10T09:09:34;5.93;;;3.92;;
17953;SDS011;9102;53.548;9.926;2023-05-10T09:12:03;7.35;;;3.78;;
17953;SDS011;9102;53.548;9.926;2023-05-10T09:14:32;5.50;;;3.40;;
17953;SDS011;9102;53.548;9.926;2023-05-10T09:17:01;8.00;;;3.75;;
17953;SDS011;9102;53.548;9.926;2023-05-10T09:19:28;8.35;;;4.13;;
17953;SDS011;9102;53.548;9.926;2023-05-10T09:21:55;9.82;;;4.10;;
17953;SDS011;9102;53.548;9.926;2023-05-10T09:24:24;8.48;;;4.50;;
17953;SDS011;9102;53.548;9.926;2023-05-10T09:26:52;6.15;;;4.70;;
17953;SDS011;9102;53.548;9.926;2023-05-10T09:29:20;5.85;;;4.20;;
17953;SDS011;9102;53.548;9.926;2023-05-10T09:31:48;5.78;;;4.70;;
17953;SDS011;9102;53.548;9.926;2023-05-10T09:34:20;6.20;;;4.50;;
17953;SDS011;9102;53.548;9.926;2023-05-10T09:36:54;5.28;;;4.40;;
17953;SDS011;9102;53.548;9.926;2023-05-10T09:39:29;6.65;;;4.07;;
17953;SDS011;9102;53.548;9.926;2023-05-10T09:41:57;16.05;;;10.02;;
17953;SDS011;9102;53.548;9.926;2023-05-10T09:44:27;12.07;;;5.75;;
17953;SDS011;9102;53.548;9.926;2023-05-10T09:46:53;8.10;;;4.97;;
17953;SDS011;9102;53.548;9.926;2023-05-10T09:49:21;6.47;;;4.93;;
17953;SDS011;9102;53.548;9.926;2023-05-10T09:51:57;9.73;;;4.93;;
17953;SDS011;9102;53.548;9.926;2023-05-10T09:54:26;8.25;;;4.28;;
17953;SDS011;9102;53.548;9.926;2023-05-10T09:56:53;10.88;;;5.70;;
17953;SDS011;9102;53.548;9.926;2023-05-10T09:59:20;7.50;;;5.60;;
17953;SDS011;9102;53.548;9.926;2023-05-10T10:01:50;11.88;;;6.22;;
17953;SDS011;9102;53.548;9.926;2023-05-10T10:04:17;10.43;;;6.15;;
17953;SDS011;9102;53.548;9.926;2023-05-10T10:06:45;9.40;;;5.90;;
17953;SDS011;9102;53.548;9.926;2023-05-10T10:09:13;7.88;;;5.90;;
17953;SDS011;9102;53.548;9.926;2023-05-10T10:11:40;13.60;;;7.05;;
17953;SDS011;9102;53.548;9.926;2023-05-10T10:14:07;14.70;;;6.72;;
17953;SDS011;9102;53.548;9.926;2023-05-10T10:16:34;12.25;;;7.75;;
17953;SDS011;9102;53.548;9.926;2023-05-10T10:19:02;13.30;;;6.78;;
17953;SDS011;9102;53.548;9.926;2023-05-10T10:21:29;11.18;;;7.47;;
17953;SDS011;9102;53.548;9.926;2023-05-10T10:23:56;12.10;;;6.53;;
17953;SDS011;9102;53.548;9.926;2023-05-10T10:26:23;12.00;;;7.40;;
17953;SDS011;9102;53.548;9.926;2023-05-10T10:28:51;13.48;;;7.75;;
17953;SDS011;9102;53.548;9.926;2023-05-10T10:31:32;19.50;;;8.15;;
17953;SDS011;9102;53.548;9.926;2023-05-10T10:34:06;11.80;;;7.43;;
17953;SDS011;9102;53.548;9.926;2023-05-10T10:36:42;9.57;;;7.18;;
17953;SDS011;9102;53.548;9.926;2023-05-10T10:39:11;11.95;;;7.65;;
17953;SDS011;9102;53.548;9.926;2023-05-10T10:41:39;10.15;;;7.97;;
17953;SDS011;9102;53.548;9.926;2023-05-10T10:44:24;14.43;;;8.23;;
17953;SDS011;9102;53.548;9.926;2023-05-10T10:47:01;14.00;;;8.73;;
17953;SDS011;9102;53.548;9.926;2023-05-10T10:49:32;14.18;;;9.00;;
17953;SDS011;9102;53.548;9.926;2023-05-10T10:52:12;13.50;;;8.48;;
17953;SDS011;9102;53.548;9.926;2023-05-10T10:54:40;15.68;;;8.40;;
17953;SDS011;9102;53.548;9.926;2023-05-10T10:57:10;15.35;;;8.60;;
17953;SDS011;9102;53.548;9.926;2023-05-10T10:59:41;11.38;;;8.18;;
17953;SDS011;9102;53.548;9.926;2023-05-10T11:02:08;12.63;;;8.52;;
17953;SDS011;9102;53.548;9.926;2023-05-10T11:04:43;13.25;;;8.57;;
17953;SDS011;9102;53.548;9.926;2023-05-10T11:07:17;11.70;;;8.60;;
17953;SDS011;9102;53.548;9.926;2023-05-10T11:09:45;11.48;;;9.00;;
17953;SDS011;9102;53.548;9.926;2023-05-10T11:12:12;11.40;;;8.82;;
17953;SDS011;9102;53.548;9.926;2023-05-10T11:14:39;12.82;;;9.60;;
17953;SDS011;9102;53.548;9.926;2023-05-10T11:20:08;11.00;;;8.85;;
17953;SDS011;9102;53.548;9.926;2023-05-10T11:22:50;12.38;;;8.50;;
17953;SDS011;9102;53.548;9.926;2023-05-10T11:25:18;13.27;;;8.65;;
17953;SDS011;9102;53.548;9.926;2023-05-10T11:27:46;13.07;;;8.70;;
17953;SDS011;9102;53.548;9.926;2023-05-10T11:30:14;12.27;;;8.60;;
17953;SDS011;9102;53.548;9.926;2023-05-10T11:32:41;16.23;;;9.55;;
17953;SDS011;9102;53.548;9.926;2023-05-10T11:35:09;14.23;;;9.10;;
17953;SDS011;9102;53.548;9.926;2023-05-10T11:37:37;12.38;;;9.02;;
17953;SDS011;9102;53.548;9.926;2023-05-10T11:40:07;10.70;;;8.43;;
17953;SDS011;9102;53.548;9.926;2023-05-10T11:42:35;14.65;;;8.00;;
17953;SDS011;9102;53.548;9.926;2023-05-10T11:45:03;11.18;;;8.70;;
17953;SDS011;9102;53.548;9.926;2023-05-10T11:47:30;12.27;;;8.95;;
17953;SDS011;9102;53.548;9.926;2023-05-10T11:49:57;12.77;;;8.85;;
17953;SDS011;9102;53.548;9.926;2023-05-10T11:52:26;13.50;;;9.35;;
17953;SDS011;9102;53.548;9.926;2023-05-10T11:54:54;13.15;;;9.48;;
17953;SDS011;9102;53.548;9.926;2023-05-10T11:57:25;12.40;;;9.18;;
17953;SDS011;9102;53.548;9.926;2023-05-10T11:59:53;14.07;;;8.95;;
17953;SDS011;9102;53.548;9.926;2023-05-10T12:02:20;12.05;;;9.40;;
17953;SDS011;9102;53.548;9.926;2023-05-10T12:04:47;12.63;;;8.13;;
17953;SDS011;9102;53.548;9.926;2023-05-10T12:07:15;10.00;;;8.02;;
17953;SDS011;9102;53.548;9.926;2023-05-10T12:09:44;12.75;;;8.73;;
17953;SDS011;9102;53.548;9.926;2023-05-10T12:12:15;13.18;;;8.73;;
17953;SDS011;9102;53.548;9.926;2023-05-10T12:14:42;12.30;;;9.25;;
17953;SDS011;9102;53.548;9.926;2023-05-10T12:17:11;15.00;;;9.93;;
17953;SDS011;9102;53.548;9.926;2023-05-10T12:19:38;16.00;;;8.95;;
17953;SDS011;9102;53.548;9.926;2023-05-10T12:22:05;12.63;;;9.23;;
17953;SDS011;9102;53.548;9.926;2023-05-10T12:24:33;11.95;;;7.75;;
17953;SDS011;9102;53.548;9.926;2023-05-10T12:27:05;10.85;;;7.28;;
17953;SDS011;9102;53.548;9.926;2023-05-10T12:29:34;10.68;;;7.43;;
17953;SDS011;9102;53.548;9.926;2023-05-10T12:32:00;11.93;;;7.68;;
17953;SDS011;9102;53.548;9.926;2023-05-10T12:34:30;9.30;;;6.68;;
17953;SDS011;9102;53.548;9.926;2023-05-10T12:36:59;9.15;;;6.95;;
17953;SDS011;9102;53.548;9.926;2023-05-10T12:39:26;10.77;;;7.00;;
17953;SDS011;9102;53.548;9.926;2023-05-10T12:42:05;20.90;;;11.65;;
17953;SDS011;9102;53.548;9.926;2023-05-10T12:44:32;24.77;;;13.63;;
17953;SDS011;9102;53.548;9.926;2023-05-10T12:46:59;14.77;;;9.90;;
17953;SDS011;9102;53.548;9.926;2023-05-10T12:49:26;8.18;;;6.60;;
17953;SDS011;9102;53.548;9.926;2023-05-10T12:51:53;9.38;;;6.40;;
17953;SDS011;9102;53.548;9.926;2023-05-10T12:54:20;7.93;;;6.20;;
17953;SDS011;9102;53.548;9.926;2023-05-10T12:56:46;9.43;;;6.50;;
17953;SDS011;9102;53.548;9.926;2023-05-10T12:59:15;9.85;;;7.15;;
17953;SDS011;9102;53.548;9.926;2023-05-10T13:01:42;9.93;;;6.50;;
17953;SDS011;9102;53.548;9.926;2023-05-10T13:04:08;9.18;;;6.82;;
17953;SDS011;9102;53.548;9.926;2023-05-10T13:06:35;9.95;;;7.80;;
17953;SDS011;9102;53.548;9.926;2023-05-10T13:09:02;11.02;;;7.47;;
17953;SDS011;9102;53.548;9.926;2023-05-10T13:11:29;9.60;;;7.60;;
17953;SDS011;9102;53.548;9.926;2023-05-10T13:13:56;12.73;;;6.95;;
17953;SDS011;9102;53.548;9.926;2023-05-10T13:16:24;11.30;;;7.65;;
17953;SDS011;9102;53.548;9.926;2023-05-10T13:18:51;11.07;;;7.68;;
17953;SDS011;9102;53.548;9.926;2023-05-10T13:21:18;11.90;;;6.70;;
17953;SDS011;9102;53.548;9.926;2023-05-10T13:23:45;9.20;;;5.75;;
17953;SDS011;9102;53.548;9.926;2023-05-10T13:26:12;7.55;;;6.43;;
17953;SDS011;9102;53.548;9.926;2023-05-10T13:28:39;11.15;;;7.28;;
17953;SDS011;9102;53.548;9.926;2023-05-10T13:31:06;8.32;;;6.28;;
17953;SDS011;9102;53.548;9.926;2023-05-10T13:33:34;9.48;;;6.93;;
17953;SDS011;9102;53.548;9.926;2023-05-10T13:36:01;11.85;;;7.43;;
17953;SDS011;9102;53.548;9.926;2023-05-10T13:38:28;10.48;;;6.75;;
17953;SDS011;9102;53.548;9.926;2023-05-10T13:40:55;7.88;;;6.20;;
17953;SDS011;9102;53.548;9.926;2023-05-10T13:43:22;11.38;;;6.60;;
17953;SDS011;9102;53.548;9.926;2023-05-10T13:45:49;7.55;;;6.75;;
17953;SDS011;9102;53.548;9.926;2023-05-10T13:48:17;7.07;;;6.05;;
17953;SDS011;9102;53.548;9.926;2023-05-10T13:50:45;9.07;;;6.93;;
17953;SDS011;9102;53.548;9.926;2023-05-10T13:53:12;9.27;;;7.22;;
17953;SDS011;9102;53.548;9.926;2023-05-10T13:55:39;7.93;;;6.60;;
17953;SDS011;9102;53.548;9.926;2023-05-10T13:58:06;8.55;;;6.70;;
17953;SDS011;9102;53.548;9.926;2023-05-10T14:00:33;9.15;;;7.18;;
17953;SDS011;9102;53.548;9.926;2023-05-10T14:02:59;9.57;;;6.97;;
17953;SDS011;9102;53.548;9.926;2023-05-10T14:05:26;7.75;;;6.75;;
17953;SDS011;9102;53.548;9.926;2023-05-10T14:07:54;11.35;;;7.07;;
17953;SDS011;9102;53.548;9.926;2023-05-10T14:10:22;8.77;;;6.78;;
17953;SDS011;9102;53.548;9.926;2023-05-10T14:12:49;9.50;;;7.38;;
17953;SDS011;9102;53.548;9.926;2023-05-10T14:15:16;11.35;;;7.25;;
17953;SDS011;9102;53.548;9.926;2023-05-10T14:17:43;10.02;;;5.95;;
17953;SDS011;9102;53.548;9.926;2023-05-10T14:20:10;7.13;;;5.82;;
17953;SDS011;9102;53.548;9.926;2023-05-10T14:22:37;9.68;;;6.57;;
17953;SDS011;9102;53.548;9.926;2023-05-10T14:25:07;7.72;;;5.88;;
17953;SDS011;9102;53.548;9.926;2023-05-10T14:27:34;9.95;;;7.07;;
17953;SDS011;9102;53.548;9.926;2023-05-10T14:30:04;7.43;;;6.07;;
17953;SDS011;9102;53.548;9.926;2023-05-10T14:32:32;8.65;;;6.80;;
17953;SDS011;9102;53.548;9.926;2023-05-10T14:34:59;7.50;;;6.05;;
17953;SDS011;9102;53.548;9.926;2023-05-10T14:37:25;6.88;;;5.95;;
17953;SDS011;9102;53.548;9.926;2023-05-10T14:39:55;8.25;;;6.45;;
17953;SDS011;9102;53.548;9.926;2023-05-10T14:42:23;8.05;;;6.80;;
17953;SDS011;9102;53.548;9.926;2023-05-10T14:44:50;9.13;;;6.82;;
17953;SDS011;9102;53.548;9.926;2023-05-10T14:47:17;8.70;;;6.85;;
17953;SDS011;9102;53.548;9.926;2023-05-10T14:49:44;6.65;;;5.80;;
17953;SDS011;9102;53.548;9.926;2023-05-10T14:52:11;8.35;;;6.38;;
17953;SDS011;9102;53.548;9.926;2023-05-10T14:54:39;8.48;;;6.20;;
17953;SDS011;9102;53.548;9.926;2023-05-10T14:57:06;12.05;;;7.00;;
17953;SDS011;9102;53.548;9.926;2023-05-10T14:59:34;7.70;;;6.55;;
17953;SDS011;9102;53.548;9.926;2023-05-10T15:02:01;9.75;;;6.63;;
17953;SDS011;9102;53.548;9.926;2023-05-10T15:04:28;7.85;;;6.65;;
17953;SDS011;9102;53.548;9.926;2023-05-10T15:06:54;8.10;;;6.70;;
17953;SDS011;9102;53.548;9.926;2023-05-10T15:09:24;8.60;;;7.10;;
17953;SDS011;9102;53.548;9.926;2023-05-10T15:11:51;10.20;;;6.40;;